sensor_id;sensor_type;location;lat;lon;timestamp;pressure;altitude;pressure_sealevel;temperature;humidity
70343;BME280;57767;42.068;24.752;2023-02-28T00:00:09;99402.22;;;9.53;64.12
70343;BME280;57767;42.068;24.752;2023-02-28T00:01:13;99396.56;;;9.56;64.02
70343;BME280;57767;42.068;24.752;2023-02-28T00:02:15;99398.91;;;9.65;63.84
70343;BME280;57767;42.068;24.752;2023-02-28T00:03:19;99398.97;;;9.72;63.54
70343;BME280;57767;42.068;24.752;2023-02-28T00:04:20;99394.13;;;9.76;62.77
70343;BME280;57767;42.068;24.752;2023-02-28T00:05:24;99400.66;;;9.80;62.67
70343;BME280;57767;42.068;24.752;2023-02-28T00:06:26;99406.69;;;9.74;62.95
70343;BME280;57767;42.068;24.752;2023-02-28T00:07:29;99402.25;;;9.74;63.28
70343;BME280;57767;42.068;24.752;2023-02-28T00:08:32;99403.81;;;9.68;62.97
70343;BME280;57767;42.068;24.752;2023-02-28T00:09:33;99399.53;;;9.67;62.07
70343;BME280;57767;42.068;24.752;2023-02-28T00:10:35;99396.53;;;9.70;62.45
70343;BME280;57767;42.068;24.752;2023-02-28T00:11:37;99397.72;;;9.68;61.81
70343;BME280;57767;42.068;24.752;2023-02-28T00:12:39;99404.88;;;9.74;61.15
70343;BME280;57767;42.068;24.752;2023-02-28T00:13:44;99411.38;;;9.78;61.15
70343;BME280;57767;42.068;24.752;2023-02-28T00:14:48;99411.19;;;9.80;60.88
70343;BME280;57767;42.068;24.752;2023-02-28T00:15:59;99405.94;;;9.80;61.63
70343;BME280;57767;42.068;24.752;2023-02-28T00:17:02;99417.09;;;9.82;61.66
70343;BME280;57767;42.068;24.752;2023-02-28T00:18:04;99399.78;;;9.73;61.23
70343;BME280;57767;42.068;24.752;2023-02-28T00:19:05;99416.09;;;9.83;60.89
70343;BME280;57767;42.068;24.752;2023-02-28T00:20:08;99393.69;;;9.72;61.14
70343;BME280;57767;42.068;24.752;2023-02-28T00:21:11;99411.28;;;9.86;61.46
70343;BME280;57767;42.068;24.752;2023-02-28T00:22:13;99405.19;;;9.86;61.56
70343;BME280;57767;42.068;24.752;2023-02-28T00:23:15;99393.56;;;9.80;62.20
70343;BME280;57767;42.068;24.752;2023-02-28T00:24:16;99406.59;;;9.88;61.76
70343;BME280;57767;42.068;24.752;2023-02-28T00:25:21;99397.66;;;9.83;61.71
70343;BME280;57767;42.068;24.752;2023-02-28T00:26:23;99393.13;;;9.77;62.11
70343;BME280;57767;42.068;24.752;2023-02-28T00:27:24;99396.56;;;9.77;62.16
70343;BME280;57767;42.068;24.752;2023-02-28T00:28:26;99400.47;;;9.81;61.78
70343;BME280;57767;42.068;24.752;2023-02-28T00:29:28;99399.66;;;9.81;62.36
70343;BME280;57767;42.068;24.752;2023-02-28T00:30:30;99401.59;;;9.72;63.03
70343;BME280;57767;42.068;24.752;2023-02-28T00:31:31;99400.03;;;9.56;63.77
70343;BME280;57767;42.068;24.752;2023-02-28T00:32:33;99392.53;;;9.39;63.76
70343;BME280;57767;42.068;24.752;2023-02-28T00:33:36;99383.06;;;9.23;64.62
70343;BME280;57767;42.068;24.752;2023-02-28T00:34:37;99391.97;;;9.22;64.64
70343;BME280;57767;42.068;24.752;2023-02-28T00:35:39;99392.59;;;9.24;64.99
70343;BME280;57767;42.068;24.752;2023-02-28T00:36:41;99379.28;;;9.11;64.51
70343;BME280;57767;42.068;24.752;2023-02-28T00:37:47;99386.25;;;9.18;64.32
70343;BME280;57767;42.068;24.752;2023-02-28T00:38:49;99374.84;;;9.11;63.86
70343;BME280;57767;42.068;24.752;2023-02-28T00:39:51;99389.06;;;9.17;63.34
70343;BME280;57767;42.068;24.752;2023-02-28T00:40:53;99390.34;;;9.21;63.17
70343;BME280;57767;42.068;24.752;2023-02-28T00:41:54;99389.75;;;9.25;63.05
70343;BME280;57767;42.068;24.752;2023-02-28T00:42:56;99401.84;;;9.34;62.45
70343;BME280;57767;42.068;24.752;2023-02-28T00:43:58;99411.19;;;9.37;61.89
70343;BME280;57767;42.068;24.752;2023-02-28T00:44:59;99401.66;;;9.36;62.20
70343;BME280;57767;42.068;24.752;2023-02-28T00:46:02;99403.91;;;9.39;62.58
70343;BME280;57767;42.068;24.752;2023-02-28T00:47:04;99413.06;;;9.43;62.25
70343;BME280;57767;42.068;24.752;2023-02-28T00:48:06;99415.34;;;9.46;62.06
70343;BME280;57767;42.068;24.752;2023-02-28T00:49:07;99405.97;;;9.44;62.61
70343;BME280;57767;42.068;24.752;2023-02-28T00:50:10;99405.16;;;9.43;61.87
70343;BME280;57767;42.068;24.752;2023-02-28T00:51:12;99389.84;;;9.32;61.79
70343;BME280;57767;42.068;24.752;2023-02-28T00:52:13;99400.66;;;9.37;61.65
70343;BME280;57767;42.068;24.752;2023-02-28T00:53:15;99398.47;;;9.26;62.11
70343;BME280;57767;42.068;24.752;2023-02-28T00:54:17;99414.28;;;9.26;61.47
70343;BME280;57767;42.068;24.752;2023-02-28T00:55:19;99411.16;;;9.16;62.18
70343;BME280;57767;42.068;24.752;2023-02-28T00:56:21;99399.97;;;9.14;62.57
70343;BME280;57767;42.068;24.752;2023-02-28T00:57:23;99408.78;;;9.21;62.27
70343;BME280;57767;42.068;24.752;2023-02-28T00:58:25;99410.59;;;9.20;62.04
70343;BME280;57767;42.068;24.752;2023-02-28T00:59:27;99398.72;;;9.10;62.20
70343;BME280;57767;42.068;24.752;2023-02-28T01:00:28;99413.78;;;9.16;61.90
70343;BME280;57767;42.068;24.752;2023-02-28T01:01:30;99408.25;;;9.11;62.93
70343;BME280;57767;42.068;24.752;2023-02-28T01:02:33;99411.63;;;9.05;62.57
70343;BME280;57767;42.068;24.752;2023-02-28T01:03:34;99398.38;;;8.98;63.43
70343;BME280;57767;42.068;24.752;2023-02-28T01:04:36;99414.34;;;9.11;62.90
70343;BME280;57767;42.068;24.752;2023-02-28T01:05:38;99407.06;;;9.13;62.82
70343;BME280;57767;42.068;24.752;2023-02-28T01:06:40;99417.81;;;9.12;63.16
70343;BME280;57767;42.068;24.752;2023-02-28T01:07:42;99414.13;;;9.13;62.90
70343;BME280;57767;42.068;24.752;2023-02-28T01:08:44;99408.34;;;9.03;63.30
70343;BME280;57767;42.068;24.752;2023-02-28T01:09:46;99410.28;;;8.94;64.24
70343;BME280;57767;42.068;24.752;2023-02-28T01:10:48;99409.47;;;8.93;63.99
70343;BME280;57767;42.068;24.752;2023-02-28T01:11:49;99406.00;;;8.93;64.38
70343;BME280;57767;42.068;24.752;2023-02-28T01:12:51;99415.53;;;8.94;64.21
70343;BME280;57767;42.068;24.752;2023-02-28T01:13:53;99409.38;;;8.87;63.88
70343;BME280;57767;42.068;24.752;2023-02-28T01:14:55;99419.25;;;8.99;63.77
70343;BME280;57767;42.068;24.752;2023-02-28T01:15:56;99422.97;;;9.05;64.19
70343;BME280;57767;42.068;24.752;2023-02-28T01:16:58;99432.69;;;9.05;63.78
70343;BME280;57767;42.068;24.752;2023-02-28T01:18:00;99427.06;;;9.08;63.79
70343;BME280;57767;42.068;24.752;2023-02-28T01:19:02;99428.19;;;8.98;64.00
70343;BME280;57767;42.068;24.752;2023-02-28T01:20:04;99428.00;;;8.85;64.30
70343;BME280;57767;42.068;24.752;2023-02-28T01:21:08;99433.88;;;8.87;65.08
70343;BME280;57767;42.068;24.752;2023-02-28T01:22:10;99425.81;;;8.89;64.75
70343;BME280;57767;42.068;24.752;2023-02-28T01:23:12;99432.06;;;8.88;65.05
70343;BME280;57767;42.068;24.752;2023-02-28T01:24:14;99429.88;;;8.91;64.84
70343;BME280;57767;42.068;24.752;2023-02-28T01:25:16;99425.16;;;8.87;65.56
70343;BME280;57767;42.068;24.752;2023-02-28T01:26:20;99429.25;;;8.89;64.61
70343;BME280;57767;42.068;24.752;2023-02-28T01:27:23;99436.25;;;8.82;64.87
70343;BME280;57767;42.068;24.752;2023-02-28T01:28:25;99430.00;;;8.83;65.37
70343;BME280;57767;42.068;24.752;2023-02-28T01:29:27;99441.88;;;8.79;66.66
70343;BME280;57767;42.068;24.752;2023-02-28T01:30:28;99447.50;;;8.76;67.34
70343;BME280;57767;42.068;24.752;2023-02-28T01:31:30;99438.59;;;8.62;66.82
70343;BME280;57767;42.068;24.752;2023-02-28T01:32:32;99448.13;;;8.63;67.24
70343;BME280;57767;42.068;24.752;2023-02-28T01:33:35;99449.53;;;8.59;67.50
70343;BME280;57767;42.068;24.752;2023-02-28T01:34:37;99446.13;;;8.51;67.76
70343;BME280;57767;42.068;24.752;2023-02-28T01:35:38;99461.50;;;8.47;67.76
70343;BME280;57767;42.068;24.752;2023-02-28T01:36:40;99445.22;;;8.44;68.47
70343;BME280;57767;42.068;24.752;2023-02-28T01:37:42;99451.31;;;8.44;68.40
70343;BME280;57767;42.068;24.752;2023-02-28T01:38:44;99452.75;;;8.32;69.12
70343;BME280;57767;42.068;24.752;2023-02-28T01:39:46;99467.22;;;8.28;68.96
70343;BME280;57767;42.068;24.752;2023-02-28T01:40:48;99473.63;;;8.25;68.96
70343;BME280;57767;42.068;24.752;2023-02-28T01:41:50;99477.97;;;8.18;69.43
70343;BME280;57767;42.068;24.752;2023-02-28T01:42:52;99477.75;;;8.05;69.78
70343;BME280;57767;42.068;24.752;2023-02-28T01:45:34;99480.75;;;8.02;70.94
70343;BME280;57767;42.068;24.752;2023-02-28T01:46:30;99476.81;;;7.98;71.49
70343;BME280;57767;42.068;24.752;2023-02-28T01:47:39;99482.72;;;8.00;72.08
70343;BME280;57767;42.068;24.752;2023-02-28T01:48:51;99479.28;;;8.00;72.32
70343;BME280;57767;42.068;24.752;2023-02-28T01:49:54;99482.72;;;8.00;72.10
70343;BME280;57767;42.068;24.752;2023-02-28T01:50:59;99475.22;;;7.97;72.69
70343;BME280;57767;42.068;24.752;2023-02-28T01:52:02;99483.38;;;8.02;72.65
70343;BME280;57767;42.068;24.752;2023-02-28T01:53:06;99479.28;;;8.00;72.96
70343;BME280;57767;42.068;24.752;2023-02-28T01:54:14;99483.72;;;7.99;73.41
70343;BME280;57767;42.068;24.752;2023-02-28T01:55:19;99484.69;;;7.98;73.25
70343;BME280;57767;42.068;24.752;2023-02-28T01:56:29;99487.81;;;8.02;73.86
70343;BME280;57767;42.068;24.752;2023-02-28T01:57:35;99485.53;;;7.99;74.13
70343;BME280;57767;42.068;24.752;2023-02-28T01:58:39;99487.47;;;8.05;74.33
70343;BME280;57767;42.068;24.752;2023-02-28T01:59:44;99492.38;;;8.08;73.74
70343;BME280;57767;42.068;24.752;2023-02-28T02:00:48;99484.66;;;8.06;73.60
70343;BME280;57767;42.068;24.752;2023-02-28T02:01:50;99492.22;;;8.09;73.27
70343;BME280;57767;42.068;24.752;2023-02-28T02:02:57;99482.84;;;8.07;73.08
70343;BME280;57767;42.068;24.752;2023-02-28T02:04:02;99492.47;;;8.14;72.67
70343;BME280;57767;42.068;24.752;2023-02-28T02:05:11;99499.13;;;8.25;72.15
70343;BME280;57767;42.068;24.752;2023-02-28T02:06:13;99492.69;;;8.27;72.23
70343;BME280;57767;42.068;24.752;2023-02-28T02:07:16;99494.84;;;8.32;71.99
70343;BME280;57767;42.068;24.752;2023-02-28T02:08:26;99494.34;;;8.28;71.86
70343;BME280;57767;42.068;24.752;2023-02-28T02:09:29;99499.59;;;8.28;71.58
70343;BME280;57767;42.068;24.752;2023-02-28T02:11:34;99501.56;;;8.35;71.35
70343;BME280;57767;42.068;24.752;2023-02-28T02:15:18;99509.22;;;8.44;71.13
70343;BME280;57767;42.068;24.752;2023-02-28T02:17:50;99517.09;;;8.44;70.18
70343;BME280;57767;42.068;24.752;2023-02-28T02:29:52;99511.19;;;8.42;70.78
70343;BME280;57767;42.068;24.752;2023-02-28T02:35:42;99516.38;;;8.27;71.55
70343;BME280;57767;42.068;24.752;2023-02-28T02:36:42;99514.91;;;8.25;71.52
70343;BME280;57767;42.068;24.752;2023-02-28T02:40:07;99511.88;;;8.36;71.17
70343;BME280;57767;42.068;24.752;2023-02-28T02:41:01;99511.09;;;8.36;71.08
70343;BME280;57767;42.068;24.752;2023-02-28T02:42:24;99511.53;;;8.39;70.58
70343;BME280;57767;42.068;24.752;2023-02-28T02:43:36;99501.75;;;8.33;70.58
70343;BME280;57767;42.068;24.752;2023-02-28T02:44:45;99514.28;;;8.46;71.13
70343;BME280;57767;42.068;24.752;2023-02-28T02:45:50;99515.94;;;8.47;71.00
70343;BME280;57767;42.068;24.752;2023-02-28T02:46:59;99496.56;;;8.40;70.55
70343;BME280;57767;42.068;24.752;2023-02-28T02:48:07;99517.84;;;8.53;70.20
70343;BME280;57767;42.068;24.752;2023-02-28T02:49:18;99525.31;;;8.64;70.22
70343;BME280;57767;42.068;24.752;2023-02-28T02:50:26;99524.94;;;8.67;69.78
70343;BME280;57767;42.068;24.752;2023-02-28T02:51:32;99532.19;;;8.65;69.61
70343;BME280;57767;42.068;24.752;2023-02-28T02:52:39;99530.56;;;8.64;70.77
70343;BME280;57767;42.068;24.752;2023-02-28T02:53:49;99530.94;;;8.61;70.76
70343;BME280;57767;42.068;24.752;2023-02-28T02:54:56;99533.94;;;8.58;71.08
70343;BME280;57767;42.068;24.752;2023-02-28T02:56:00;99529.91;;;8.62;70.61
70343;BME280;57767;42.068;24.752;2023-02-28T02:57:06;99535.28;;;8.54;72.34
70343;BME280;57767;42.068;24.752;2023-02-28T02:58:17;99540.88;;;8.51;73.47
70343;BME280;57767;42.068;24.752;2023-02-28T02:59:21;99534.69;;;8.44;74.20
70343;BME280;57767;42.068;24.752;2023-02-28T03:00:30;99538.69;;;8.40;75.21
70343;BME280;57767;42.068;24.752;2023-02-28T03:01:34;99540.38;;;8.33;75.79
70343;BME280;57767;42.068;24.752;2023-02-28T03:02:40;99536.44;;;8.28;75.74
70343;BME280;57767;42.068;24.752;2023-02-28T03:03:43;99539.72;;;8.31;75.77
70343;BME280;57767;42.068;24.752;2023-02-28T03:04:50;99547.56;;;8.39;75.30
70343;BME280;57767;42.068;24.752;2023-02-28T03:05:53;99544.66;;;8.34;75.67
70343;BME280;57767;42.068;24.752;2023-02-28T03:06:55;99542.03;;;8.25;75.93
70343;BME280;57767;42.068;24.752;2023-02-28T03:07:56;99548.94;;;8.26;76.68
70343;BME280;57767;42.068;24.752;2023-02-28T03:08:59;99545.31;;;8.27;76.61
70343;BME280;57767;42.068;24.752;2023-02-28T03:10:01;99549.41;;;8.30;76.31
70343;BME280;57767;42.068;24.752;2023-02-28T03:11:12;99557.00;;;8.25;76.87
70343;BME280;57767;42.068;24.752;2023-02-28T03:12:16;99550.09;;;8.24;76.84
70343;BME280;57767;42.068;24.752;2023-02-28T03:19:33;99561.28;;;8.26;78.86
70343;BME280;57767;42.068;24.752;2023-02-28T03:23:19;99568.34;;;8.25;79.66
70343;BME280;57767;42.068;24.752;2023-02-28T03:24:31;99565.72;;;8.25;79.57
70343;BME280;57767;42.068;24.752;2023-02-28T03:26:13;99569.22;;;8.18;79.97
70343;BME280;57767;42.068;24.752;2023-02-28T03:30:25;99572.38;;;8.13;80.03
70343;BME280;57767;42.068;24.752;2023-02-28T03:34:15;99572.38;;;8.13;80.10
70343;BME280;57767;42.068;24.752;2023-02-28T03:35:25;99560.13;;;8.06;80.44
70343;BME280;57767;42.068;24.752;2023-02-28T03:36:30;99570.41;;;8.15;80.15
70343;BME280;57767;42.068;24.752;2023-02-28T03:37:35;99574.19;;;8.13;80.59
70343;BME280;57767;42.068;24.752;2023-02-28T03:38:49;99576.00;;;8.12;80.31
70343;BME280;57767;42.068;24.752;2023-02-28T03:40:06;99568.59;;;8.16;80.21
70343;BME280;57767;42.068;24.752;2023-02-28T03:41:15;99573.69;;;8.17;80.22
70343;BME280;57767;42.068;24.752;2023-02-28T03:42:21;99574.19;;;8.13;80.24
70343;BME280;57767;42.068;24.752;2023-02-28T03:43:29;99568.09;;;8.12;80.71
70343;BME280;57767;42.068;24.752;2023-02-28T03:44:54;99581.25;;;8.12;80.61
70343;BME280;57767;42.068;24.752;2023-02-28T03:45:59;99574.44;;;8.03;80.64
70343;BME280;57767;42.068;24.752;2023-02-28T03:47:08;99587.09;;;8.00;80.94
70343;BME280;57767;42.068;24.752;2023-02-28T03:48:19;99581.81;;;8.00;81.24
70343;BME280;57767;42.068;24.752;2023-02-28T03:49:27;99586.47;;;7.98;81.55
70343;BME280;57767;42.068;24.752;2023-02-28T03:50:38;99574.69;;;7.85;81.92
70343;BME280;57767;42.068;24.752;2023-02-28T03:51:41;99586.66;;;7.88;82.32
70343;BME280;57767;42.068;24.752;2023-02-28T03:53:18;99590.28;;;7.87;82.34
70343;BME280;57767;42.068;24.752;2023-02-28T03:54:27;99592.63;;;7.82;82.18
70343;BME280;57767;42.068;24.752;2023-02-28T03:55:42;99590.66;;;7.76;82.59
70343;BME280;57767;42.068;24.752;2023-02-28T03:56:56;99589.03;;;7.75;82.75
70343;BME280;57767;42.068;24.752;2023-02-28T03:58:13;99592.03;;;7.72;83.03
70343;BME280;57767;42.068;24.752;2023-02-28T03:59:29;99596.97;;;7.67;83.57
70343;BME280;57767;42.068;24.752;2023-02-28T04:00:46;99597.94;;;7.66;83.40
70343;BME280;57767;42.068;24.752;2023-02-28T04:01:50;99580.59;;;7.48;83.86
70343;BME280;57767;42.068;24.752;2023-02-28T04:02:53;99594.88;;;7.54;83.76
70343;BME280;57767;42.068;24.752;2023-02-28T04:03:55;99600.31;;;7.52;84.10
70343;BME280;57767;42.068;24.752;2023-02-28T04:04:57;99607.53;;;7.59;84.14
70343;BME280;57767;42.068;24.752;2023-02-28T04:05:59;99616.41;;;7.58;84.38
70343;BME280;57767;42.068;24.752;2023-02-28T04:07:06;99615.91;;;7.54;84.20
70343;BME280;57767;42.068;24.752;2023-02-28T04:08:08;99616.06;;;7.52;84.22
70343;BME280;57767;42.068;24.752;2023-02-28T04:09:13;99611.97;;;7.50;84.44
70343;BME280;57767;42.068;24.752;2023-02-28T04:10:16;99623.63;;;7.55;84.78
70343;BME280;57767;42.068;24.752;2023-02-28T04:11:24;99627.25;;;7.54;84.78
70343;BME280;57767;42.068;24.752;2023-02-28T04:12:29;99621.16;;;7.54;84.98
70343;BME280;57767;42.068;24.752;2023-02-28T04:13:31;99625.09;;;7.50;85.39
70343;BME280;57767;42.068;24.752;2023-02-28T04:14:33;99620.84;;;7.49;85.59
70343;BME280;57767;42.068;24.752;2023-02-28T04:15:34;99618.69;;;7.52;85.43
70343;BME280;57767;42.068;24.752;2023-02-28T04:16:39;99625.75;;;7.52;85.61
70343;BME280;57767;42.068;24.752;2023-02-28T04:17:41;99623.94;;;7.52;85.61
70343;BME280;57767;42.068;24.752;2023-02-28T04:18:43;99626.91;;;7.58;85.51
70343;BME280;57767;42.068;24.752;2023-02-28T04:19:45;99623.28;;;7.59;85.60
70343;BME280;57767;42.068;24.752;2023-02-28T04:20:47;99626.53;;;7.61;85.54
70343;BME280;57767;42.068;24.752;2023-02-28T04:21:51;99630.19;;;7.60;85.59
70343;BME280;57767;42.068;24.752;2023-02-28T04:22:53;99623.28;;;7.59;85.16
70343;BME280;57767;42.068;24.752;2023-02-28T04:23:55;99610.97;;;7.51;85.32
70343;BME280;57767;42.068;24.752;2023-02-28T04:24:57;99622.63;;;7.57;85.75
70343;BME280;57767;42.068;24.752;2023-02-28T04:25:59;99627.88;;;7.57;85.94
70343;BME280;57767;42.068;24.752;2023-02-28T04:27:01;99623.63;;;7.55;85.75
70343;BME280;57767;42.068;24.752;2023-02-28T04:28:02;99624.56;;;7.63;85.42
70343;BME280;57767;42.068;24.752;2023-02-28T04:29:05;99625.88;;;7.67;85.41
70343;BME280;57767;42.068;24.752;2023-02-28T04:30:07;99624.56;;;7.63;85.53
70343;BME280;57767;42.068;24.752;2023-02-28T04:31:09;99625.38;;;7.63;85.54
70343;BME280;57767;42.068;24.752;2023-02-28T04:32:12;99622.63;;;7.57;85.64
70343;BME280;57767;42.068;24.752;2023-02-28T04:33:14;99628.03;;;7.63;85.51
70343;BME280;57767;42.068;24.752;2023-02-28T04:34:16;99631.94;;;7.67;85.39
70343;BME280;57767;42.068;24.752;2023-02-28T04:35:20;99627.84;;;7.65;85.54
70343;BME280;57767;42.068;24.752;2023-02-28T04:36:22;99622.63;;;7.57;85.83
70343;BME280;57767;42.068;24.752;2023-02-28T04:37:24;99583.28;;;7.40;85.76
70343;BME280;57767;42.068;24.752;2023-02-28T04:38:33;99629.16;;;7.61;86.10
70343;BME280;57767;42.068;24.752;2023-02-28T04:39:36;99625.56;;;7.62;85.95
70343;BME280;57767;42.068;24.752;2023-02-28T04:40:38;99629.00;;;7.62;85.98
70343;BME280;57767;42.068;24.752;2023-02-28T04:41:40;99624.56;;;7.63;85.93
70343;BME280;57767;42.068;24.752;2023-02-28T04:42:41;99618.97;;;7.66;85.46
70343;BME280;57767;42.068;24.752;2023-02-28T04:43:43;99625.22;;;7.65;85.70
70343;BME280;57767;42.068;24.752;2023-02-28T04:44:45;99620.47;;;7.60;85.69
70343;BME280;57767;42.068;24.752;2023-02-28T04:45:47;99624.13;;;7.59;85.82
70343;BME280;57767;42.068;24.752;2023-02-28T04:46:49;99612.13;;;7.57;85.87
70343;BME280;57767;42.068;24.752;2023-02-28T04:47:51;99625.38;;;7.63;85.95
70343;BME280;57767;42.068;24.752;2023-02-28T04:48:53;99612.41;;;7.62;85.92
70343;BME280;57767;42.068;24.752;2023-02-28T04:49:55;99611.59;;;7.61;85.75
70343;BME280;57767;42.068;24.752;2023-02-28T04:51:06;99614.75;;;7.57;85.76
70343;BME280;57767;42.068;24.752;2023-02-28T04:52:08;99612.47;;;7.53;85.47
70343;BME280;57767;42.068;24.752;2023-02-28T04:53:11;99622.81;;;7.55;85.88
70343;BME280;57767;42.068;24.752;2023-02-28T04:54:13;99619.84;;;7.58;86.00
70343;BME280;57767;42.068;24.752;2023-02-28T04:55:15;99617.06;;;7.60;86.00
70343;BME280;57767;42.068;24.752;2023-02-28T04:56:17;99614.75;;;7.57;85.80
70343;BME280;57767;42.068;24.752;2023-02-28T04:57:19;99624.13;;;7.59;85.50
70343;BME280;57767;42.068;24.752;2023-02-28T04:58:21;99620.66;;;7.59;85.29
70343;BME280;57767;42.068;24.752;2023-02-28T04:59:26;99628.53;;;7.59;85.38
70343;BME280;57767;42.068;24.752;2023-02-28T05:00:28;99630.53;;;7.57;85.33
70343;BME280;57767;42.068;24.752;2023-02-28T05:01:32;99631.78;;;7.61;85.01
70343;BME280;57767;42.068;24.752;2023-02-28T05:02:34;99634.63;;;7.59;84.97
70343;BME280;57767;42.068;24.752;2023-02-28T05:03:36;99637.72;;;7.63;84.67
70343;BME280;57767;42.068;24.752;2023-02-28T05:04:38;99598.41;;;7.30;84.92
70343;BME280;57767;42.068;24.752;2023-02-28T05:05:40;99630.53;;;7.48;85.24
70343;BME280;57767;42.068;24.752;2023-02-28T05:06:42;99631.66;;;7.54;85.00
70343;BME280;57767;42.068;24.752;2023-02-28T05:07:44;99641.69;;;7.59;85.11
70343;BME280;57767;42.068;24.752;2023-02-28T05:08:46;99648.59;;;7.60;85.11
70343;BME280;57767;42.068;24.752;2023-02-28T05:09:48;99638.88;;;7.60;85.12
70343;BME280;57767;42.068;24.752;2023-02-28T05:10:50;99643.13;;;7.61;85.28
70343;BME280;57767;42.068;24.752;2023-02-28T05:11:51;99647.88;;;7.66;84.76
70343;BME280;57767;42.068;24.752;2023-02-28T05:12:53;99650.53;;;7.66;84.78
70343;BME280;57767;42.068;24.752;2023-02-28T05:13:55;99650.19;;;7.61;84.90
70343;BME280;57767;42.068;24.752;2023-02-28T05:14:57;99650.19;;;7.61;84.56
70343;BME280;57767;42.068;24.752;2023-02-28T05:15:59;99651.22;;;7.60;85.06
70343;BME280;57767;42.068;24.752;2023-02-28T05:17:00;99648.59;;;7.60;85.07
70343;BME280;57767;42.068;24.752;2023-02-28T05:18:02;99656.75;;;7.65;84.77
70343;BME280;57767;42.068;24.752;2023-02-28T05:19:04;99654.13;;;7.65;84.60
70343;BME280;57767;42.068;24.752;2023-02-28T05:20:07;99652.50;;;7.64;85.03
70343;BME280;57767;42.068;24.752;2023-02-28T05:21:39;99654.63;;;7.68;84.56
70343;BME280;57767;42.068;24.752;2023-02-28T05:22:42;99657.53;;;7.73;84.35
70343;BME280;57767;42.068;24.752;2023-02-28T05:23:44;99661.31;;;7.79;83.91
70343;BME280;57767;42.068;24.752;2023-02-28T05:24:48;99665.25;;;7.75;83.37
70343;BME280;57767;42.068;24.752;2023-02-28T05:25:50;99665.75;;;7.78;83.65
70343;BME280;57767;42.068;24.752;2023-02-28T05:26:54;99664.59;;;7.73;83.77
70343;BME280;57767;42.068;24.752;2023-02-28T05:27:56;99672.50;;;7.81;83.35
70343;BME280;57767;42.068;24.752;2023-02-28T05:28:57;99670.69;;;7.81;83.28
70343;BME280;57767;42.068;24.752;2023-02-28T05:29:59;99671.97;;;7.85;83.07
70343;BME280;57767;42.068;24.752;2023-02-28T05:31:04;99673.31;;;7.81;83.22
70343;BME280;57767;42.068;24.752;2023-02-28T05:32:06;99680.88;;;7.84;83.24
70343;BME280;57767;42.068;24.752;2023-02-28T05:33:11;99658.03;;;7.77;82.84
70343;BME280;57767;42.068;24.752;2023-02-28T05:34:12;99658.91;;;7.69;82.79
70343;BME280;57767;42.068;24.752;2023-02-28T05:35:16;99667.25;;;7.73;82.90
70343;BME280;57767;42.068;24.752;2023-02-28T05:36:19;99679.56;;;7.80;82.79
70343;BME280;57767;42.068;24.752;2023-02-28T05:37:21;99674.78;;;7.76;82.84
70343;BME280;57767;42.068;24.752;2023-02-28T05:38:23;99683.81;;;7.81;82.62
70343;BME280;57767;42.068;24.752;2023-02-28T05:39:24;99682.34;;;7.79;82.66
70343;BME280;57767;42.068;24.752;2023-02-28T05:40:26;99678.41;;;7.83;82.56
70343;BME280;57767;42.068;24.752;2023-02-28T05:41:28;99689.22;;;7.88;82.13
70343;BME280;57767;42.068;24.752;2023-02-28T05:42:30;99692.31;;;7.91;82.48
70343;BME280;57767;42.068;24.752;2023-02-28T05:43:32;99689.03;;;7.98;82.21
70343;BME280;57767;42.068;24.752;2023-02-28T05:44:35;99694.47;;;7.96;82.05
70343;BME280;57767;42.068;24.752;2023-02-28T05:45:37;99689.38;;;7.95;82.11
70343;BME280;57767;42.068;24.752;2023-02-28T05:46:39;99696.91;;;7.98;81.84
70343;BME280;57767;42.068;24.752;2023-02-28T05:47:40;99696.09;;;7.97;81.58
70343;BME280;57767;42.068;24.752;2023-02-28T05:48:45;99696.56;;;8.01;81.88
70343;BME280;57767;42.068;24.752;2023-02-28T05:49:47;99691.81;;;7.96;81.87
70343;BME280;57767;42.068;24.752;2023-02-28T05:50:49;99697.25;;;7.95;81.91
70343;BME280;57767;42.068;24.752;2023-02-28T05:51:50;99689.38;;;7.95;82.10
70343;BME280;57767;42.068;24.752;2023-02-28T05:52:52;99684.28;;;7.93;81.70
70343;BME280;57767;42.068;24.752;2023-02-28T05:53:54;99692.66;;;7.97;81.80
70343;BME280;57767;42.068;24.752;2023-02-28T05:54:56;99690.03;;;7.97;81.77
70343;BME280;57767;42.068;24.752;2023-02-28T05:55:58;99701.00;;;8.00;82.17
70343;BME280;57767;42.068;24.752;2023-02-28T05:57:00;99694.09;;;7.99;81.87
70343;BME280;57767;42.068;24.752;2023-02-28T05:58:02;99685.91;;;7.94;81.54
70343;BME280;57767;42.068;24.752;2023-02-28T05:59:03;99704.97;;;7.96;81.74
70343;BME280;57767;42.068;24.752;2023-02-28T06:00:06;99699.41;;;7.91;81.97
70343;BME280;57767;42.068;24.752;2023-02-28T06:01:30;99705.78;;;7.97;82.14
70343;BME280;57767;42.068;24.752;2023-02-28T06:02:32;99704.97;;;7.96;82.27
70343;BME280;57767;42.068;24.752;2023-02-28T06:03:34;99702.69;;;7.93;82.28
70343;BME280;57767;42.068;24.752;2023-02-28T06:04:36;99691.84;;;7.88;82.37
70343;BME280;57767;42.068;24.752;2023-02-28T06:05:38;99695.63;;;7.94;81.95
70343;BME280;57767;42.068;24.752;2023-02-28T06:06:40;99706.09;;;8.02;82.28
70343;BME280;57767;42.068;24.752;2023-02-28T06:07:42;99705.59;;;8.06;82.18
70343;BME280;57767;42.068;24.752;2023-02-28T06:08:44;99696.56;;;8.01;82.36
70343;BME280;57767;42.068;24.752;2023-02-28T06:09:47;99700.16;;;8.08;81.97
70343;BME280;57767;42.068;24.752;2023-02-28T06:10:48;99716.72;;;8.16;81.76
70343;BME280;57767;42.068;24.752;2023-02-28T06:11:50;99711.78;;;8.21;81.88
70343;BME280;57767;42.068;24.752;2023-02-28T06:12:52;99716.34;;;8.27;81.28
70343;BME280;57767;42.068;24.752;2023-02-28T06:13:58;99713.06;;;8.25;81.10
70343;BME280;57767;42.068;24.752;2023-02-28T06:15:01;99710.41;;;8.25;80.81
70343;BME280;57767;42.068;24.752;2023-02-28T06:16:03;99713.53;;;8.29;80.90
70343;BME280;57767;42.068;24.752;2023-02-28T06:17:05;99719.31;;;8.33;81.06
70343;BME280;57767;42.068;24.752;2023-02-28T06:18:06;99683.16;;;8.18;80.96